Home Previsioni Grafici Avvisi Live Satellite Webcam Min e Max Mappe Metar Effemeridi Terremoti Info Glossario

Report METAR

 

LIEB - Cape Bellavista, Italy
Distance from station: SE 54km
Dati ricevuti: 25/02/2018 07:55
Parz. nuvoloso
Parz. nuvoloso
 Vento da ONO
Vento: ONO 24 km/h
Temperatura: 6°C
Temperatura Vento: 2°C
P.to Rugiada: -1°C
Umidità: 61%
Barometro: 1005 hPa
Nuvole: Parz. nuvoloso
Visibility: 10 km
Cloud details: Few Clouds 914 m
Parz. nuvoloso 1067 m
2018/02/25 06:55 LIEB 250655Z 30013KT 9999 FEW030 SCT035 06/M01 Q1005 RMK SCT QUK 2 QUL 0 VIS MAR 25 KM MON LIB VIS MIN 9999
LIEO - Olbia/Costa Smer, Italy
Distance from station: NNE 70km
Dati ricevuti: 25/02/2018 08:50
Sereno
Sereno
 Vento da OSO
Vento: OSO 11 km/h
Temperatura: 8°C
Temperatura Vento: 6°C
P.to Rugiada: 5°C
Umidità: 82%
Barometro: 1006 hPa
Summary: Sereno
Visibility: superiore a 10 km
2018/02/25 07:50 LIEO 250750Z 24006KT CAVOK 08/05 Q1006
 
LIEA - Alghero, Italy
Distance from station: ONO 94km
Dati ricevuti: 25/02/2018 08:50
Pioviggine, Parz. nuvoloso
Pioviggine, Parz. nuvoloso
 Vento da OSO
Vento: OSO 17 km/h
Temperatura: 10°C
Temperatura Vento: 8°C
P.to Rugiada: 7°C
Umidità: 82%
Barometro: 1005 hPa
Summary: Pioviggine
Nuvole: Parz. nuvoloso
Visibility: 10 km
Cloud details: Few Clouds 610 m
Parz. nuvoloso 1219 m
2018/02/25 07:50 LIEA 250750Z 24009KT 9999 -RA FEW020 SCT040 10/07 Q1005
LIED - Decimomannu(It-A, Italy
Distance from station: SSO 107km
Dati ricevuti: 25/02/2018 07:55
Mist, Nubi sparse
Mist, Nubi sparse
 Vento da NNE
Vento: NNE 9 km/h
Temperatura: 3°C
Temperatura Vento: 0°C
P.to Rugiada: 2°C
Umidità: 93%
Barometro: 1007 hPa
Summary: Mist
Nuvole: Few Clouds
Visibility: 5 km
Cloud details: Few Clouds 61 m
2018/02/25 06:55 LIED 250655Z 02005KT 5000 BR FEW002 03/02 Q1007 RMK SCT SCT100 VIS MIN 5000 WIND THR35 01003KT WIND THR17 /////KT WHT
 
LIEE - Cagliari/Elmas(A, Italy
Distance from station: S 116km
Dati ricevuti: 25/02/2018 08:50
Sereno
Sereno
 Vento da NO
Vento: NO 6 km/h
Temperatura: 6°C
P.to Rugiada: 4°C
Umidità: 87%
Barometro: 1007 hPa
Summary: Sereno
Visibility: superiore a 10 km
2018/02/25 07:50 LIEE 250750Z 32003KT CAVOK 06/04 Q1007
LIEC - Cape Carbonara, Italy
Distance from station: S 133km
Dati ricevuti: 25/02/2018 07:55
Sereno
Sereno
 Vento da O
Vento: O 41 km/h
Temperatura: 10°C
Temperatura Vento: 6°C
P.to Rugiada: 6°C
Umidità: 76%
Barometro: 1006 hPa
Summary: Sereno
Visibility: superiore a 10 km
2018/02/25 06:55 LIEC 250655Z 27022KT CAVOK 10/06 Q1006 RMK SKC QUK 3 QUL 0 VIS MAR 15 KM VIS MIN 9999
 
LFKF - Figari (aut), France
Distance from station: N 137km
Dati ricevuti: 25/02/2018 08:30
Coperto
Coperto
 Vento da Variabile
Vento: Variabile 2 km/h
Temperatura: 8°C
P.to Rugiada: 8°C
Umidità: 100%
Barometro: 1005 hPa
Nuvole: Coperto
Visibility: 10 km
Cloud details: Few Clouds 518 m
Coperto 1067 m
2018/02/25 07:30 LFKF 250730Z AUTO VRB01KT 9999 FEW017 OVC035 08/08 Q1005 TEMPO 3000 +RA BR BKN010 FEW020CB BKN025
LFKS - Solenzara (fafb), France
Distance from station: N 182km
Dati ricevuti: 25/02/2018 08:30
Coperto
Coperto
 Vento da O
Vento: O 7 km/h
Temperatura: 9°C
Temperatura Vento: 8°C
P.to Rugiada: 8°C
Umidità: 94%
Barometro: 1005 hPa
Nuvole: Coperto
Visibility: 10 km
Cloud details: Few Clouds 1036 m
Coperto 1707 m
2018/02/25 07:30 LFKS 250730Z AUTO 28004KT 250V310 9999 FEW034 OVC056 09/08 Q1005